sensor_id;sensor_type;location;lat;lon;timestamp;temperature;humidity
45906;DHT22;31619;49.008;12.106;2023-04-01T00:01:10;8.60;99.90
45906;DHT22;31619;49.008;12.106;2023-04-01T00:03:37;8.70;99.90
45906;DHT22;31619;49.008;12.106;2023-04-01T00:06:03;8.70;99.90
45906;DHT22;31619;49.008;12.106;2023-04-01T00:08:29;8.70;99.90
45906;DHT22;31619;49.008;12.106;2023-04-01T00:10:55;8.70;99.90
45906;DHT22;31619;49.008;12.106;2023-04-01T00:13:22;8.60;99.90
45906;DHT22;31619;49.008;12.106;2023-04-01T00:15:48;8.70;99.90
45906;DHT22;31619;49.008;12.106;2023-04-01T00:18:14;8.80;99.90
45906;DHT22;31619;49.008;12.106;2023-04-01T00:20:46;8.90;99.90
45906;DHT22;31619;49.008;12.106;2023-04-01T00:23:12;9.00;99.90
45906;DHT22;31619;49.008;12.106;2023-04-01T00:25:38;8.90;99.90
45906;DHT22;31619;49.008;12.106;2023-04-01T00:28:03;8.90;99.90
45906;DHT22;31619;49.008;12.106;2023-04-01T00:30:29;8.90;99.90
45906;DHT22;31619;49.008;12.106;2023-04-01T00:32:55;8.90;99.90
45906;DHT22;31619;49.008;12.106;2023-04-01T00:35:21;8.90;99.90
45906;DHT22;31619;49.008;12.106;2023-04-01T00:37:47;9.00;99.90
45906;DHT22;31619;49.008;12.106;2023-04-01T00:40:28;9.00;99.90
45906;DHT22;31619;49.008;12.106;2023-04-01T00:42:55;9.00;99.90
45906;DHT22;31619;49.008;12.106;2023-04-01T00:45:34;9.00;99.90
45906;DHT22;31619;49.008;12.106;2023-04-01T00:48:22;8.90;99.90
45906;DHT22;31619;49.008;12.106;2023-04-01T00:50:52;8.90;99.90
45906;DHT22;31619;49.008;12.106;2023-04-01T00:53:19;8.90;99.90
45906;DHT22;31619;49.008;12.106;2023-04-01T00:55:58;8.90;99.90
45906;DHT22;31619;49.008;12.106;2023-04-01T00:58:27;8.90;99.90
45906;DHT22;31619;49.008;12.106;2023-04-01T01:00:55;8.90;99.90
45906;DHT22;31619;49.008;12.106;2023-04-01T01:03:22;8.90;99.90
45906;DHT22;31619;49.008;12.106;2023-04-01T01:06:18;9.00;99.90
45906;DHT22;31619;49.008;12.106;2023-04-01T01:09:13;9.00;99.90
45906;DHT22;31619;49.008;12.106;2023-04-01T01:11:59;9.00;99.90
45906;DHT22;31619;49.008;12.106;2023-04-01T01:14:38;9.00;99.90
45906;DHT22;31619;49.008;12.106;2023-04-01T01:17:58;9.00;99.90
45906;DHT22;31619;49.008;12.106;2023-04-01T01:20:19;8.80;99.90
45906;DHT22;31619;49.008;12.106;2023-04-01T01:28:34;8.80;99.90
45906;DHT22;31619;49.008;12.106;2023-04-01T01:33:50;8.80;99.90
45906;DHT22;31619;49.008;12.106;2023-04-01T01:36:21;8.90;99.90
45906;DHT22;31619;49.008;12.106;2023-04-01T01:38:48;8.90;99.90
45906;DHT22;31619;49.008;12.106;2023-04-01T01:41:16;8.90;99.90
45906;DHT22;31619;49.008;12.106;2023-04-01T01:43:45;9.00;99.90
45906;DHT22;31619;49.008;12.106;2023-04-01T01:46:16;8.90;99.90
45906;DHT22;31619;49.008;12.106;2023-04-01T01:48:43;9.00;99.90
45906;DHT22;31619;49.008;12.106;2023-04-01T01:51:11;9.00;99.90
45906;DHT22;31619;49.008;12.106;2023-04-01T01:53:36;9.00;99.90
45906;DHT22;31619;49.008;12.106;2023-04-01T01:56:03;9.00;99.90
45906;DHT22;31619;49.008;12.106;2023-04-01T01:58:30;9.00;99.90
45906;DHT22;31619;49.008;12.106;2023-04-01T02:01:00;9.10;99.90
45906;DHT22;31619;49.008;12.106;2023-04-01T02:03:29;9.00;99.90
45906;DHT22;31619;49.008;12.106;2023-04-01T02:05:57;9.10;99.90
45906;DHT22;31619;49.008;12.106;2023-04-01T02:08:41;9.10;99.90
45906;DHT22;31619;49.008;12.106;2023-04-01T02:11:10;9.10;99.90
45906;DHT22;31619;49.008;12.106;2023-04-01T02:13:44;9.00;99.90
45906;DHT22;31619;49.008;12.106;2023-04-01T02:19:15;8.90;99.90
45906;DHT22;31619;49.008;12.106;2023-04-01T02:21:52;8.80;99.90
45906;DHT22;31619;49.008;12.106;2023-04-01T02:24:19;8.80;99.90
45906;DHT22;31619;49.008;12.106;2023-04-01T02:26:49;8.90;99.90
45906;DHT22;31619;49.008;12.106;2023-04-01T02:29:18;8.80;99.90
45906;DHT22;31619;49.008;12.106;2023-04-01T02:31:45;8.80;99.90
45906;DHT22;31619;49.008;12.106;2023-04-01T02:34:11;8.70;99.90
45906;DHT22;31619;49.008;12.106;2023-04-01T02:36:38;8.70;99.90
45906;DHT22;31619;49.008;12.106;2023-04-01T02:39:04;8.80;99.90
45906;DHT22;31619;49.008;12.106;2023-04-01T02:41:30;8.70;99.90
45906;DHT22;31619;49.008;12.106;2023-04-01T02:43:56;8.70;99.90
45906;DHT22;31619;49.008;12.106;2023-04-01T02:46:24;8.80;99.90
45906;DHT22;31619;49.008;12.106;2023-04-01T02:48:49;8.80;99.90
45906;DHT22;31619;49.008;12.106;2023-04-01T02:51:15;8.90;99.90
45906;DHT22;31619;49.008;12.106;2023-04-01T02:53:41;8.90;99.90
45906;DHT22;31619;49.008;12.106;2023-04-01T02:56:06;8.90;99.90
45906;DHT22;31619;49.008;12.106;2023-04-01T02:58:32;8.80;99.90
45906;DHT22;31619;49.008;12.106;2023-04-01T03:00:57;8.90;99.90
45906;DHT22;31619;49.008;12.106;2023-04-01T03:03:23;8.90;99.90
45906;DHT22;31619;49.008;12.106;2023-04-01T03:05:48;8.90;99.90
45906;DHT22;31619;49.008;12.106;2023-04-01T03:08:14;9.00;99.90
45906;DHT22;31619;49.008;12.106;2023-04-01T03:10:40;9.10;99.90
45906;DHT22;31619;49.008;12.106;2023-04-01T03:13:05;8.90;99.90
45906;DHT22;31619;49.008;12.106;2023-04-01T03:15:31;9.00;99.90
45906;DHT22;31619;49.008;12.106;2023-04-01T03:17:57;9.00;99.90
45906;DHT22;31619;49.008;12.106;2023-04-01T03:20:22;9.00;99.90
45906;DHT22;31619;49.008;12.106;2023-04-01T03:22:48;9.00;99.90
45906;DHT22;31619;49.008;12.106;2023-04-01T03:25:14;9.00;99.90
45906;DHT22;31619;49.008;12.106;2023-04-01T03:27:40;8.90;99.90
45906;DHT22;31619;49.008;12.106;2023-04-01T03:30:06;8.80;99.90
45906;DHT22;31619;49.008;12.106;2023-04-01T03:32:32;8.70;99.90
45906;DHT22;31619;49.008;12.106;2023-04-01T03:34:57;8.60;99.90
45906;DHT22;31619;49.008;12.106;2023-04-01T03:37:23;8.60;99.90
45906;DHT22;31619;49.008;12.106;2023-04-01T03:39:49;8.70;99.90
45906;DHT22;31619;49.008;12.106;2023-04-01T03:42:15;8.60;99.90
45906;DHT22;31619;49.008;12.106;2023-04-01T03:44:41;8.70;99.90
45906;DHT22;31619;49.008;12.106;2023-04-01T03:47:06;8.70;99.90
45906;DHT22;31619;49.008;12.106;2023-04-01T03:49:33;8.70;99.90
45906;DHT22;31619;49.008;12.106;2023-04-01T03:51:58;8.70;99.90
45906;DHT22;31619;49.008;12.106;2023-04-01T03:54:24;8.70;99.90
45906;DHT22;31619;49.008;12.106;2023-04-01T03:56:49;8.60;99.90
45906;DHT22;31619;49.008;12.106;2023-04-01T03:59:15;8.60;99.90
45906;DHT22;31619;49.008;12.106;2023-04-01T04:01:41;8.70;99.90
45906;DHT22;31619;49.008;12.106;2023-04-01T04:04:07;8.60;99.90
45906;DHT22;31619;49.008;12.106;2023-04-01T04:06:33;8.60;99.90
45906;DHT22;31619;49.008;12.106;2023-04-01T04:08:59;8.60;99.90
45906;DHT22;31619;49.008;12.106;2023-04-01T04:11:25;8.50;99.90
45906;DHT22;31619;49.008;12.106;2023-04-01T04:13:51;8.40;99.90
45906;DHT22;31619;49.008;12.106;2023-04-01T04:16:17;8.40;99.90
45906;DHT22;31619;49.008;12.106;2023-04-01T04:18:43;8.40;99.90
45906;DHT22;31619;49.008;12.106;2023-04-01T04:21:12;8.30;99.90
45906;DHT22;31619;49.008;12.106;2023-04-01T04:23:39;8.30;99.90
45906;DHT22;31619;49.008;12.106;2023-04-01T04:26:06;8.40;99.90
45906;DHT22;31619;49.008;12.106;2023-04-01T04:28:33;8.50;99.90
45906;DHT22;31619;49.008;12.106;2023-04-01T04:30:58;8.50;99.90
45906;DHT22;31619;49.008;12.106;2023-04-01T04:33:24;8.60;99.90
45906;DHT22;31619;49.008;12.106;2023-04-01T04:35:50;8.60;99.90
45906;DHT22;31619;49.008;12.106;2023-04-01T04:38:17;8.60;99.90
45906;DHT22;31619;49.008;12.106;2023-04-01T04:40:43;8.60;99.90
45906;DHT22;31619;49.008;12.106;2023-04-01T04:43:14;8.50;99.90
45906;DHT22;31619;49.008;12.106;2023-04-01T04:45:40;8.60;99.90
45906;DHT22;31619;49.008;12.106;2023-04-01T04:48:10;8.50;99.90
45906;DHT22;31619;49.008;12.106;2023-04-01T04:50:40;8.40;99.90
45906;DHT22;31619;49.008;12.106;2023-04-01T04:53:05;8.20;99.90
45906;DHT22;31619;49.008;12.106;2023-04-01T04:55:31;8.10;99.90
45906;DHT22;31619;49.008;12.106;2023-04-01T04:57:57;8.00;99.90
45906;DHT22;31619;49.008;12.106;2023-04-01T05:00:22;7.90;99.90
45906;DHT22;31619;49.008;12.106;2023-04-01T05:02:48;7.80;99.90
45906;DHT22;31619;49.008;12.106;2023-04-01T05:05:13;7.80;99.90
45906;DHT22;31619;49.008;12.106;2023-04-01T05:07:39;7.80;99.90
45906;DHT22;31619;49.008;12.106;2023-04-01T05:10:05;7.70;99.90
45906;DHT22;31619;49.008;12.106;2023-04-01T05:12:31;7.70;99.90
45906;DHT22;31619;49.008;12.106;2023-04-01T05:14:58;7.70;99.90
45906;DHT22;31619;49.008;12.106;2023-04-01T05:17:24;7.80;99.90
45906;DHT22;31619;49.008;12.106;2023-04-01T05:19:50;7.80;99.90
45906;DHT22;31619;49.008;12.106;2023-04-01T05:22:16;7.80;99.90
45906;DHT22;31619;49.008;12.106;2023-04-01T05:24:41;7.80;99.90
45906;DHT22;31619;49.008;12.106;2023-04-01T05:27:07;7.80;99.90
45906;DHT22;31619;49.008;12.106;2023-04-01T05:29:32;7.90;99.90
45906;DHT22;31619;49.008;12.106;2023-04-01T05:31:58;8.00;99.90
45906;DHT22;31619;49.008;12.106;2023-04-01T05:34:24;8.10;99.90
45906;DHT22;31619;49.008;12.106;2023-04-01T05:36:49;8.30;99.90
45906;DHT22;31619;49.008;12.106;2023-04-01T05:39:15;8.40;99.90
45906;DHT22;31619;49.008;12.106;2023-04-01T05:41:41;8.40;99.90
45906;DHT22;31619;49.008;12.106;2023-04-01T05:44:06;8.50;99.90
45906;DHT22;31619;49.008;12.106;2023-04-01T05:46:32;8.50;99.90
45906;DHT22;31619;49.008;12.106;2023-04-01T05:48:58;8.60;99.90
45906;DHT22;31619;49.008;12.106;2023-04-01T05:51:23;8.60;99.90
45906;DHT22;31619;49.008;12.106;2023-04-01T05:53:49;8.60;99.90
45906;DHT22;31619;49.008;12.106;2023-04-01T05:56:15;8.60;99.90
45906;DHT22;31619;49.008;12.106;2023-04-01T05:58:40;8.70;99.90
45906;DHT22;31619;49.008;12.106;2023-04-01T06:01:09;8.80;99.90
45906;DHT22;31619;49.008;12.106;2023-04-01T06:03:34;8.90;99.90
45906;DHT22;31619;49.008;12.106;2023-04-01T06:06:00;9.00;99.90
45906;DHT22;31619;49.008;12.106;2023-04-01T06:08:27;9.10;99.90
45906;DHT22;31619;49.008;12.106;2023-04-01T06:11:23;9.20;99.90
45906;DHT22;31619;49.008;12.106;2023-04-01T06:13:57;9.30;99.90
45906;DHT22;31619;49.008;12.106;2023-04-01T06:30:34;9.00;99.90
45906;DHT22;31619;49.008;12.106;2023-04-01T06:33:29;9.20;99.90
45906;DHT22;31619;49.008;12.106;2023-04-01T06:36:12;9.40;99.90
45906;DHT22;31619;49.008;12.106;2023-04-01T06:44:29;9.60;99.90
45906;DHT22;31619;49.008;12.106;2023-04-01T06:55:21;9.60;99.90
45906;DHT22;31619;49.008;12.106;2023-04-01T06:57:46;9.60;99.90
45906;DHT22;31619;49.008;12.106;2023-04-01T07:00:27;9.50;99.90
45906;DHT22;31619;49.008;12.106;2023-04-01T07:03:38;9.50;99.90
45906;DHT22;31619;49.008;12.106;2023-04-01T07:05:45;9.60;99.90
45906;DHT22;31619;49.008;12.106;2023-04-01T07:08:19;9.60;99.90
45906;DHT22;31619;49.008;12.106;2023-04-01T07:10:56;9.50;99.90
45906;DHT22;31619;49.008;12.106;2023-04-01T07:16:31;9.70;99.90
45906;DHT22;31619;49.008;12.106;2023-04-01T07:19:22;9.90;99.90
45906;DHT22;31619;49.008;12.106;2023-04-01T07:21:54;10.30;99.90
45906;DHT22;31619;49.008;12.106;2023-04-01T07:24:29;10.40;99.90
45906;DHT22;31619;49.008;12.106;2023-04-01T07:26:57;10.40;99.90
45906;DHT22;31619;49.008;12.106;2023-04-01T07:29:25;10.40;99.90
45906;DHT22;31619;49.008;12.106;2023-04-01T07:37:15;10.60;99.90
45906;DHT22;31619;49.008;12.106;2023-04-01T07:54:00;11.40;99.90
45906;DHT22;31619;49.008;12.106;2023-04-01T08:01:57;12.10;99.90
45906;DHT22;31619;49.008;12.106;2023-04-01T08:04:42;12.50;99.90
45906;DHT22;31619;49.008;12.106;2023-04-01T08:07:21;12.60;99.90
45906;DHT22;31619;49.008;12.106;2023-04-01T08:16:03;13.20;99.90
45906;DHT22;31619;49.008;12.106;2023-04-01T08:18:58;13.40;99.90
45906;DHT22;31619;49.008;12.106;2023-04-01T08:21:38;13.40;99.90
45906;DHT22;31619;49.008;12.106;2023-04-01T08:24:38;13.30;99.90
45906;DHT22;31619;49.008;12.106;2023-04-01T08:27:28;13.30;99.90
45906;DHT22;31619;49.008;12.106;2023-04-01T08:30:17;13.00;99.90
45906;DHT22;31619;49.008;12.106;2023-04-01T08:32:57;12.60;99.90
45906;DHT22;31619;49.008;12.106;2023-04-01T08:35:31;12.40;99.90
45906;DHT22;31619;49.008;12.106;2023-04-01T08:38:11;12.60;99.90
45906;DHT22;31619;49.008;12.106;2023-04-01T09:02:39;15.00;99.90
45906;DHT22;31619;49.008;12.106;2023-04-01T09:08:21;14.70;99.90
45906;DHT22;31619;49.008;12.106;2023-04-01T09:14:13;14.40;99.90
45906;DHT22;31619;49.008;12.106;2023-04-01T09:27:45;14.30;99.90
45906;DHT22;31619;49.008;12.106;2023-04-01T09:30:34;14.30;99.90
45906;DHT22;31619;49.008;12.106;2023-04-01T09:36:43;14.10;99.90
45906;DHT22;31619;49.008;12.106;2023-04-01T09:39:30;14.30;99.90
45906;DHT22;31619;49.008;12.106;2023-04-01T09:44:35;15.20;99.90
45906;DHT22;31619;49.008;12.106;2023-04-01T09:53:27;15.10;99.90
45906;DHT22;31619;49.008;12.106;2023-04-01T10:01:51;14.70;99.90
45906;DHT22;31619;49.008;12.106;2023-04-01T10:07:27;14.40;99.90
45906;DHT22;31619;49.008;12.106;2023-04-01T10:13:23;14.40;99.60
45906;DHT22;31619;49.008;12.106;2023-04-01T10:40:53;15.60;97.90
45906;DHT22;31619;49.008;12.106;2023-04-01T11:13:35;15.40;96.30
45906;DHT22;31619;49.008;12.106;2023-04-01T11:19:18;15.60;95.80
45906;DHT22;31619;49.008;12.106;2023-04-01T11:27:53;15.60;94.80
45906;DHT22;31619;49.008;12.106;2023-04-01T11:33:38;14.90;97.20
45906;DHT22;31619;49.008;12.106;2023-04-01T11:41:56;13.60;99.90
45906;DHT22;31619;49.008;12.106;2023-04-01T11:44:29;12.70;99.90
45906;DHT22;31619;49.008;12.106;2023-04-01T11:48:07;12.10;99.90
45906;DHT22;31619;49.008;12.106;2023-04-01T11:50:24;11.90;99.90
45906;DHT22;31619;49.008;12.106;2023-04-01T11:58:13;11.40;99.90
45906;DHT22;31619;49.008;12.106;2023-04-01T12:12:39;11.00;99.90
45906;DHT22;31619;49.008;12.106;2023-04-01T12:26:54;11.20;99.90
45906;DHT22;31619;49.008;12.106;2023-04-01T12:32:20;11.10;99.90
45906;DHT22;31619;49.008;12.106;2023-04-01T12:46:03;10.90;99.90
45906;DHT22;31619;49.008;12.106;2023-04-01T12:56:57;10.90;99.90
45906;DHT22;31619;49.008;12.106;2023-04-01T13:03:22;10.60;99.90
45906;DHT22;31619;49.008;12.106;2023-04-01T13:07:53;10.30;99.90
45906;DHT22;31619;49.008;12.106;2023-04-01T13:18:25;9.90;99.90
45906;DHT22;31619;49.008;12.106;2023-04-01T13:21:15;9.90;99.90
45906;DHT22;31619;49.008;12.106;2023-04-01T13:29:39;10.30;99.90
45906;DHT22;31619;49.008;12.106;2023-04-01T13:43:22;10.50;99.90
45906;DHT22;31619;49.008;12.106;2023-04-01T14:03:03;10.40;99.90
45906;DHT22;31619;49.008;12.106;2023-04-01T14:14:30;10.30;99.90
45906;DHT22;31619;49.008;12.106;2023-04-01T14:17:22;10.30;99.90
45906;DHT22;31619;49.008;12.106;2023-04-01T14:35:56;10.00;99.90
45906;DHT22;31619;49.008;12.106;2023-04-01T14:38:54;10.10;99.90
45906;DHT22;31619;49.008;12.106;2023-04-01T14:49:23;10.20;99.90
45906;DHT22;31619;49.008;12.106;2023-04-01T14:51:50;10.20;99.90
45906;DHT22;31619;49.008;12.106;2023-04-01T14:54:30;10.20;99.90
45906;DHT22;31619;49.008;12.106;2023-04-01T14:57:15;10.10;99.90
45906;DHT22;31619;49.008;12.106;2023-04-01T14:59:53;10.10;99.90
45906;DHT22;31619;49.008;12.106;2023-04-01T15:10:43;10.10;99.90
45906;DHT22;31619;49.008;12.106;2023-04-01T15:16:34;10.30;99.90
45906;DHT22;31619;49.008;12.106;2023-04-01T15:30:45;10.40;99.90
45906;DHT22;31619;49.008;12.106;2023-04-01T15:33:28;10.40;99.90
45906;DHT22;31619;49.008;12.106;2023-04-01T15:36:27;10.50;99.90
45906;DHT22;31619;49.008;12.106;2023-04-01T15:39:17;10.40;99.90
45906;DHT22;31619;49.008;12.106;2023-04-01T15:44:43;10.30;99.90
45906;DHT22;31619;49.008;12.106;2023-04-01T15:47:31;10.40;99.90
45906;DHT22;31619;49.008;12.106;2023-04-01T15:56:19;10.50;99.90
45906;DHT22;31619;49.008;12.106;2023-04-01T16:13:02;11.10;99.90
45906;DHT22;31619;49.008;12.106;2023-04-01T16:21:45;11.10;99.90
45906;DHT22;31619;49.008;12.106;2023-04-01T16:27:44;10.90;99.90
45906;DHT22;31619;49.008;12.106;2023-04-01T16:40:40;10.20;99.90
45906;DHT22;31619;49.008;12.106;2023-04-01T16:43:21;10.10;99.90
45906;DHT22;31619;49.008;12.106;2023-04-01T16:48:56;9.90;99.90
45906;DHT22;31619;49.008;12.106;2023-04-01T16:51:23;9.90;99.90
45906;DHT22;31619;49.008;12.106;2023-04-01T16:56:41;9.70;99.90
45906;DHT22;31619;49.008;12.106;2023-04-01T16:59:21;9.60;99.90
45906;DHT22;31619;49.008;12.106;2023-04-01T17:01:57;9.50;99.90
45906;DHT22;31619;49.008;12.106;2023-04-01T17:04:50;9.50;99.90
45906;DHT22;31619;49.008;12.106;2023-04-01T17:13:10;9.40;99.90
45906;DHT22;31619;49.008;12.106;2023-04-01T17:15:46;9.40;99.90
45906;DHT22;31619;49.008;12.106;2023-04-01T17:21:10;9.20;99.90
45906;DHT22;31619;49.008;12.106;2023-04-01T17:29:10;9.10;99.90
45906;DHT22;31619;49.008;12.106;2023-04-01T17:31:57;9.10;99.90
45906;DHT22;31619;49.008;12.106;2023-04-01T17:40:33;9.10;99.90
45906;DHT22;31619;49.008;12.106;2023-04-01T17:42:50;9.10;99.90
45906;DHT22;31619;49.008;12.106;2023-04-01T17:45:28;9.00;99.90
45906;DHT22;31619;49.008;12.106;2023-04-01T17:48:21;9.00;99.90
45906;DHT22;31619;49.008;12.106;2023-04-01T17:51:11;9.00;99.90
45906;DHT22;31619;49.008;12.106;2023-04-01T17:53:50;9.00;99.90
45906;DHT22;31619;49.008;12.106;2023-04-01T17:56:46;9.00;99.90
45906;DHT22;31619;49.008;12.106;2023-04-01T18:10:10;9.00;99.90
45906;DHT22;31619;49.008;12.106;2023-04-01T18:13:05;9.00;99.90
45906;DHT22;31619;49.008;12.106;2023-04-01T18:15:46;9.00;99.90
45906;DHT22;31619;49.008;12.106;2023-04-01T18:21:56;9.10;99.90
45906;DHT22;31619;49.008;12.106;2023-04-01T18:24:44;9.10;99.90
45906;DHT22;31619;49.008;12.106;2023-04-01T18:27:22;9.20;99.90
45906;DHT22;31619;49.008;12.106;2023-04-01T18:29:50;9.10;99.90
45906;DHT22;31619;49.008;12.106;2023-04-01T18:38:26;9.10;99.90
45906;DHT22;31619;49.008;12.106;2023-04-01T18:41:10;9.20;99.90
45906;DHT22;31619;49.008;12.106;2023-04-01T18:43:49;9.20;99.90
45906;DHT22;31619;49.008;12.106;2023-04-01T18:46:40;9.20;99.90
45906;DHT22;31619;49.008;12.106;2023-04-01T18:51:53;9.30;99.90
45906;DHT22;31619;49.008;12.106;2023-04-01T18:54:31;9.30;99.90
45906;DHT22;31619;49.008;12.106;2023-04-01T18:57:14;9.30;99.90
45906;DHT22;31619;49.008;12.106;2023-04-01T19:00:04;9.20;99.90
45906;DHT22;31619;49.008;12.106;2023-04-01T19:02:37;9.00;99.90
45906;DHT22;31619;49.008;12.106;2023-04-01T19:05:12;9.10;99.90
45906;DHT22;31619;49.008;12.106;2023-04-01T19:07:44;9.20;99.90
45906;DHT22;31619;49.008;12.106;2023-04-01T19:10:39;9.30;99.90
45906;DHT22;31619;49.008;12.106;2023-04-01T19:21:35;9.30;99.90
45906;DHT22;31619;49.008;12.106;2023-04-01T19:29:41;9.40;99.90
45906;DHT22;31619;49.008;12.106;2023-04-01T19:35:21;9.30;99.90
45906;DHT22;31619;49.008;12.106;2023-04-01T19:38:00;9.30;99.90
45906;DHT22;31619;49.008;12.106;2023-04-01T19:43:39;9.10;99.90
45906;DHT22;31619;49.008;12.106;2023-04-01T19:46:28;9.10;99.90
45906;DHT22;31619;49.008;12.106;2023-04-01T19:51:34;9.00;99.90
45906;DHT22;31619;49.008;12.106;2023-04-01T19:54:15;8.90;99.90
45906;DHT22;31619;49.008;12.106;2023-04-01T19:56:45;8.90;99.90
45906;DHT22;31619;49.008;12.106;2023-04-01T19:59:22;9.00;99.90
45906;DHT22;31619;49.008;12.106;2023-04-01T20:04:44;9.00;99.90
45906;DHT22;31619;49.008;12.106;2023-04-01T20:07:34;9.00;99.90
45906;DHT22;31619;49.008;12.106;2023-04-01T20:10:20;9.00;99.90
45906;DHT22;31619;49.008;12.106;2023-04-01T20:13:13;9.00;99.90
45906;DHT22;31619;49.008;12.106;2023-04-01T20:15:46;9.00;99.90
45906;DHT22;31619;49.008;12.106;2023-04-01T20:18:19;9.00;99.90
45906;DHT22;31619;49.008;12.106;2023-04-01T20:20:56;9.00;99.90
45906;DHT22;31619;49.008;12.106;2023-04-01T20:24:01;9.10;99.90
45906;DHT22;31619;49.008;12.106;2023-04-01T20:26:33;9.10;99.90
45906;DHT22;31619;49.008;12.106;2023-04-01T20:31:34;9.10;99.90
45906;DHT22;31619;49.008;12.106;2023-04-01T20:37:14;9.10;99.90
45906;DHT22;31619;49.008;12.106;2023-04-01T20:43:48;9.20;99.90
45906;DHT22;31619;49.008;12.106;2023-04-01T20:45:58;9.30;99.90
45906;DHT22;31619;49.008;12.106;2023-04-01T20:48:58;9.40;99.90
45906;DHT22;31619;49.008;12.106;2023-04-01T20:51:30;9.40;99.90
45906;DHT22;31619;49.008;12.106;2023-04-01T20:56:29;9.20;99.90
45906;DHT22;31619;49.008;12.106;2023-04-01T21:26:48;9.20;99.90
45906;DHT22;31619;49.008;12.106;2023-04-01T21:34:55;9.30;99.90
45906;DHT22;31619;49.008;12.106;2023-04-01T21:37:42;9.30;99.90
45906;DHT22;31619;49.008;12.106;2023-04-01T21:48:46;9.00;99.90
45906;DHT22;31619;49.008;12.106;2023-04-01T21:58:13;9.20;99.90
45906;DHT22;31619;49.008;12.106;2023-04-01T22:11:51;9.20;99.90
45906;DHT22;31619;49.008;12.106;2023-04-01T22:17:43;9.20;99.90
45906;DHT22;31619;49.008;12.106;2023-04-01T22:20:28;9.20;99.90
45906;DHT22;31619;49.008;12.106;2023-04-01T22:23:01;9.20;99.90
45906;DHT22;31619;49.008;12.106;2023-04-01T22:25:38;9.20;99.90
45906;DHT22;31619;49.008;12.106;2023-04-01T22:28:26;9.20;99.90
45906;DHT22;31619;49.008;12.106;2023-04-01T22:30:59;9.20;99.90
45906;DHT22;31619;49.008;12.106;2023-04-01T22:33:43;9.20;99.90
45906;DHT22;31619;49.008;12.106;2023-04-01T22:47:57;9.20;99.90
45906;DHT22;31619;49.008;12.106;2023-04-01T22:50:37;9.20;99.90
45906;DHT22;31619;49.008;12.106;2023-04-01T22:53:27;9.20;99.90
45906;DHT22;31619;49.008;12.106;2023-04-01T22:55:57;9.10;99.90
45906;DHT22;31619;49.008;12.106;2023-04-01T22:58:35;9.10;99.90
45906;DHT22;31619;49.008;12.106;2023-04-01T23:01:10;9.10;99.90
45906;DHT22;31619;49.008;12.106;2023-04-01T23:03:41;9.20;99.90
45906;DHT22;31619;49.008;12.106;2023-04-01T23:06:16;9.20;99.90
45906;DHT22;31619;49.008;12.106;2023-04-01T23:09:15;9.20;99.90
45906;DHT22;31619;49.008;12.106;2023-04-01T23:11:49;9.10;99.90
45906;DHT22;31619;49.008;12.106;2023-04-01T23:19:29;9.20;99.90
45906;DHT22;31619;49.008;12.106;2023-04-01T23:22:03;9.20;99.90
45906;DHT22;31619;49.008;12.106;2023-04-01T23:24:41;9.20;99.90
45906;DHT22;31619;49.008;12.106;2023-04-01T23:27:19;9.20;99.90
45906;DHT22;31619;49.008;12.106;2023-04-01T23:29:46;9.20;99.90
45906;DHT22;31619;49.008;12.106;2023-04-01T23:32:18;9.30;99.90
45906;DHT22;31619;49.008;12.106;2023-04-01T23:34:52;9.30;99.90
45906;DHT22;31619;49.008;12.106;2023-04-01T23:37:20;9.30;99.90
45906;DHT22;31619;49.008;12.106;2023-04-01T23:39:49;9.40;99.90
45906;DHT22;31619;49.008;12.106;2023-04-01T23:44:48;9.40;99.90
45906;DHT22;31619;49.008;12.106;2023-04-01T23:47:22;9.40;99.90
45906;DHT22;31619;49.008;12.106;2023-04-01T23:49:53;9.40;99.90
45906;DHT22;31619;49.008;12.106;2023-04-01T23:52:26;9.40;99.90
45906;DHT22;31619;49.008;12.106;2023-04-01T23:55:11;9.40;99.90
45906;DHT22;31619;49.008;12.106;2023-04-01T23:57:38;9.30;99.90
